Impacts TAF Board
For situational awareness. Not to be used for flight planning purposes.
IDs:

KSEA - Seattle-Tacoma Intl, WA, US

Issued at 1726 UTC 17 Nov 2019
Updated at 1951 UTC 17 Nov 2019
Potential Impact None Slight Moderate High
Time1853Z 17/20Z 17/21Z 17/22Z 17/23Z 18/00Z 18/01Z 18/02Z 18/03Z 18/04Z 18/05Z 18/06Z 18/07Z 18/08Z>>
Type OBS PRVL PRVL PRVL PRVL PRVL PRVL PRVL PRVL PRVL PRVL PRVL PRVL PRVL
VIS 6 >6 >6 >6 >6 >6 >6 >6 >6 >6 >6 >6 >6 >6
CIG 17 15 15 15 15 15 15 15 15 15 20 20 20 20
Cover BKN OVC OVC OVC OVC OVC OVC OVC OVC OVC OVC OVC OVC OVC
FltCat MVFR MVFR MVFR MVFR MVFR MVFR MVFR MVFR MVFR MVFR MVFR MVFR MVFR MVFR
WX BR VCSH VCSH VCSH VCSH VCSH VCSH VCSH VCSH VCSH -- -- -- --
WDir 190 200 200 200 200 200 200 200 200 200 40 40 40 40
WSpd 15 7 7 7 7 7 7 7 7 7 3 3 3 3
WGst -- -- -- -- -- -- -- -- -- -- -- -- -- --
Raw TAF
KSEA 171726Z 1718/1824 17008KT 6SM -RA BR FEW015 BKN035 OVC045
  TEMPO 1718/1719 BKN015 OVC030
  FM171900 20007KT P6SM VCSH OVC015
  FM180500 04003KT P6SM OVC020
  FM181600 08005KT P6SM VCSH OVC020


Raw METAR
KSEA 171853Z 19015KT 6SM BR BKN017 BKN035 BKN060 12/11 A3009 RMK AO2 SLP196 T01220106
KSEA 171753Z 18010KT 5SM BR OVC021 12/10 A3010 RMK AO2 RAE24 SLP199 P0001 60008 T01170100 10117 20106 53001
KSEA 171724Z 18007KT 10SM BKN024 OVC037 11/09 A3009 RMK AO2 RAE24 P0001 T01110094
KSEA 171653Z 18006KT 6SM -RA BR BKN038 OVC044 11/09 A3009 RMK AO2 SLP197 P0005 T01110094
KSEA 171632Z 18006KT 2SM -RA BR OVC036 11/09 A3010 RMK AO2 P0002 T01110094

METAR Board
Radar Display
Forecast Discussion
For situational awareness. Not to be used for flight planning purposes.